createdAt,value
2023-02-23T00:03:40.954Z,8.41
2023-02-23T00:08:43.927Z,8.42
2023-02-23T00:13:49.997Z,8.46
2023-02-23T00:18:55.798Z,8.47
2023-02-23T00:24:00.893Z,8.41
2023-02-23T00:29:05.561Z,8.40
2023-02-23T00:34:11.663Z,8.42
2023-02-23T00:39:21.591Z,8.49
2023-02-23T00:44:25.466Z,8.48
2023-02-23T00:49:29.582Z,8.44
2023-02-23T00:54:32.270Z,8.50
2023-02-23T00:59:35.041Z,8.48
2023-02-23T01:04:39.092Z,8.45
2023-02-23T01:09:41.980Z,8.48
2023-02-23T01:14:44.961Z,8.50
2023-02-23T01:19:49.044Z,8.49
2023-02-23T01:24:51.759Z,8.47
2023-02-23T01:29:55.164Z,8.49
2023-02-23T01:34:59.216Z,8.50
2023-02-23T01:40:06.050Z,8.51
2023-02-23T01:45:19.391Z,8.47
2023-02-23T01:50:24.575Z,8.47
2023-02-23T01:55:29.259Z,8.45
2023-02-23T02:00:36.644Z,8.50
2023-02-23T02:05:45.518Z,8.47
2023-02-23T02:10:55.725Z,8.47
2023-02-23T02:16:17.593Z,8.45
2023-02-23T02:21:43.700Z,8.40
2023-02-23T02:26:55.484Z,8.41
2023-02-23T02:32:40.326Z,8.46
2023-02-23T02:37:50.791Z,8.42
2023-02-23T02:43:01.070Z,8.39
2023-02-23T02:48:10.844Z,8.38
2023-02-23T02:53:20.619Z,8.41
2023-02-23T02:58:25.586Z,8.44
2023-02-23T03:03:49.937Z,8.42
2023-02-23T03:09:17.729Z,8.38
2023-02-23T03:14:46.978Z,8.38
2023-02-23T03:20:13.644Z,8.40
2023-02-23T03:25:39.517Z,8.36
2023-02-23T03:31:07.351Z,8.37
2023-02-23T03:36:31.421Z,8.34
2023-02-23T03:41:54.763Z,8.36
2023-02-23T03:47:16.347Z,8.40
2023-02-23T03:52:40.146Z,8.36
2023-02-23T03:58:02.120Z,8.38
2023-02-23T04:03:22.865Z,8.32
2023-02-23T04:08:45.945Z,8.35
2023-02-23T04:13:53.719Z,8.27
2023-02-23T04:18:56.524Z,8.26
2023-02-23T04:23:59.667Z,8.29
2023-02-23T04:29:04.796Z,8.29
2023-02-23T04:34:07.465Z,8.29
2023-02-23T04:39:10.194Z,8.23
2023-02-23T04:44:14.258Z,8.27
2023-02-23T04:49:16.952Z,8.32
2023-02-23T04:54:19.656Z,8.27
2023-02-23T04:59:23.723Z,8.32
2023-02-23T05:04:26.513Z,8.31
2023-02-23T05:09:29.211Z,8.33
2023-02-23T05:14:33.263Z,8.34
2023-02-23T05:19:36.218Z,8.31
2023-02-23T05:24:39.126Z,8.28
2023-02-23T05:29:43.258Z,8.30
2023-02-23T05:34:45.965Z,8.31
2023-02-23T05:39:48.851Z,8.29
2023-02-23T05:44:52.906Z,8.25
2023-02-23T05:49:55.637Z,8.22
2023-02-23T05:54:58.408Z,8.24
2023-02-23T06:00:02.882Z,8.20
2023-02-23T06:05:08.174Z,8.22
2023-02-23T06:10:12.117Z,8.22
2023-02-23T06:15:16.290Z,8.23
2023-02-23T06:20:19.217Z,8.25
2023-02-23T06:25:22.045Z,8.21
2023-02-23T06:30:26.893Z,8.22
2023-02-23T06:35:29.801Z,8.27
2023-02-23T06:40:32.690Z,8.23
2023-02-23T06:45:36.930Z,8.15
2023-02-23T06:50:39.661Z,8.19
2023-02-23T06:55:42.350Z,8.19
2023-02-23T07:00:47.156Z,8.21
2023-02-23T07:05:50.883Z,8.20
2023-02-23T07:10:53.678Z,8.20
2023-02-23T07:15:59.155Z,8.20
2023-02-23T07:21:01.890Z,8.18
2023-02-23T07:26:04.700Z,8.23
2023-02-23T07:31:08.793Z,8.21
2023-02-23T07:36:11.798Z,8.22
2023-02-23T07:41:14.515Z,8.29
2023-02-23T07:46:18.718Z,8.26
2023-02-23T07:51:21.793Z,8.31
2023-02-23T07:56:24.669Z,8.29
2023-02-23T08:01:28.862Z,8.30
2023-02-23T08:06:31.954Z,8.38
2023-02-23T08:11:34.639Z,8.40
2023-02-23T08:16:38.773Z,8.35
2023-02-23T08:21:43.259Z,8.37
2023-02-23T08:26:46.091Z,8.42
2023-02-23T08:31:51.513Z,8.42
2023-02-23T08:36:54.440Z,8.43
2023-02-23T08:41:57.446Z,8.43
2023-02-23T08:47:04.481Z,8.41
2023-02-23T08:52:07.173Z,8.42
2023-02-23T08:57:11.680Z,8.35
2023-02-23T09:02:16.889Z,8.40
2023-02-23T09:07:19.617Z,8.25
2023-02-23T09:12:22.713Z,8.38
2023-02-23T09:17:27.438Z,8.27
2023-02-23T09:22:30.145Z,8.35
2023-02-23T09:27:32.860Z,8.26
2023-02-23T09:32:37.365Z,8.41
2023-02-23T09:37:40.118Z,8.25
2023-02-23T09:42:48.951Z,8.12
2023-02-23T09:48:09.243Z,8.17
2023-02-23T09:53:21.505Z,8.13
2023-02-23T09:58:25.969Z,8.10
2023-02-23T10:03:32.458Z,8.03
2023-02-23T10:08:43.942Z,8.17
2023-02-23T10:13:55.354Z,8.03
2023-02-23T10:19:04.263Z,8.15
2023-02-23T10:24:08.575Z,7.99
2023-02-23T10:29:22.382Z,8.06
2023-02-23T10:34:28.917Z,8.18
2023-02-23T10:39:32.366Z,8.16
2023-02-23T10:44:35.311Z,8.20
2023-02-23T10:49:44.371Z,8.13
2023-02-23T10:54:48.698Z,8.12
2023-02-23T11:00:30.468Z,8.35
2023-02-23T11:05:37.594Z,8.21
2023-02-23T11:10:41.079Z,8.37
2023-02-23T11:15:50.593Z,8.46
2023-02-23T11:20:55.482Z,8.42
2023-02-23T11:26:03.396Z,8.53
2023-02-23T11:31:14.284Z,8.64
2023-02-23T11:36:27.507Z,8.59
2023-02-23T11:41:31.706Z,8.78
2023-02-23T11:46:37.950Z,8.88
2023-02-23T11:51:42.707Z,8.88
2023-02-23T11:56:50.403Z,8.73
2023-02-23T12:01:55.090Z,8.93
2023-02-23T12:07:22.264Z,8.77
2023-02-23T12:12:25.527Z,8.96
2023-02-23T12:17:30.704Z,8.79
2023-02-23T12:22:37.662Z,8.73
2023-02-23T12:27:42.562Z,8.62
2023-02-23T12:32:48.810Z,8.59
2023-02-23T12:37:57.366Z,8.82
2023-02-23T12:43:03.773Z,8.81
2023-02-23T12:48:16.108Z,8.76
2023-02-23T12:53:23.006Z,8.45
2023-02-23T12:58:30.851Z,8.53
2023-02-23T13:04:12.248Z,8.63
2023-02-23T13:09:25.050Z,8.49
2023-02-23T13:14:31.786Z,8.38
2023-02-23T13:19:42.360Z,8.28
2023-02-23T13:24:49.081Z,8.24
2023-02-23T13:29:53.979Z,8.22
2023-02-23T13:35:00.538Z,8.17
2023-02-23T13:40:19.176Z,8.12
2023-02-23T13:45:32.388Z,7.95
2023-02-23T13:50:41.772Z,7.98
2023-02-23T13:55:51.545Z,7.96
2023-02-23T14:00:56.414Z,7.61
2023-02-23T14:06:01.404Z,7.63
2023-02-23T14:11:06.369Z,7.40
2023-02-23T14:16:17.516Z,7.37
2023-02-23T14:21:28.815Z,7.24
2023-02-23T14:26:42.446Z,7.08
2023-02-23T14:31:55.617Z,7.00
2023-02-23T14:36:58.642Z,7.07
2023-02-23T14:42:07.788Z,7.05
2023-02-23T14:47:13.867Z,7.15
2023-02-23T14:52:20.678Z,7.01
2023-02-23T14:57:26.611Z,7.04
2023-02-23T15:02:30.953Z,6.98
2023-02-23T15:07:36.371Z,6.91
2023-02-23T15:12:40.451Z,7.01
2023-02-23T15:17:44.294Z,6.96
2023-02-23T15:22:48.721Z,6.96
2023-02-23T15:27:53.089Z,6.85
2023-02-23T15:33:03.797Z,6.92
2023-02-23T15:38:18.052Z,6.83
2023-02-23T15:43:29.788Z,6.83
2023-02-23T15:48:42.660Z,6.72
2023-02-23T15:53:45.533Z,6.66
2023-02-23T15:58:56.969Z,6.72
2023-02-23T16:04:03.084Z,6.74
2023-02-23T16:09:20.831Z,6.70
2023-02-23T16:14:25.840Z,6.56
2023-02-23T16:19:29.629Z,6.67
2023-02-23T16:24:32.674Z,6.64
2023-02-23T16:29:41.544Z,6.55
2023-02-23T16:34:49.618Z,6.57
2023-02-23T16:39:52.810Z,6.57
2023-02-23T16:44:57.872Z,6.53
2023-02-23T16:50:04.909Z,6.57
2023-02-23T16:55:18.109Z,6.53
2023-02-23T17:00:25.136Z,6.56
2023-02-23T17:05:28.402Z,6.56
2023-02-23T17:10:32.882Z,6.60
2023-02-23T17:15:39.575Z,6.62
2023-02-23T17:20:42.305Z,6.57
2023-02-23T17:25:45.418Z,6.58
2023-02-23T17:30:49.751Z,6.57
2023-02-23T17:35:52.509Z,6.49
2023-02-23T17:40:55.679Z,6.49
2023-02-23T17:45:59.770Z,6.54
2023-02-23T17:51:04.064Z,6.47
2023-02-23T17:56:07.331Z,6.54
2023-02-23T18:01:11.855Z,6.54
2023-02-23T18:06:15.509Z,6.45
2023-02-23T18:11:19.779Z,6.52
2023-02-23T18:16:24.398Z,6.47
2023-02-23T18:21:27.418Z,6.53
2023-02-23T18:26:30.294Z,6.44
2023-02-23T18:31:34.723Z,6.44
2023-02-23T18:36:38.542Z,6.47
2023-02-23T18:41:41.816Z,6.45
2023-02-23T18:46:47.261Z,6.49
2023-02-23T18:51:50.144Z,6.44
2023-02-23T18:56:52.964Z,6.42
2023-02-23T19:01:56.990Z,6.40
2023-02-23T19:06:59.714Z,6.36
2023-02-23T19:12:02.521Z,6.39
2023-02-23T19:17:06.605Z,6.39
2023-02-23T19:22:09.366Z,6.53
2023-02-23T19:27:12.098Z,6.44
2023-02-23T19:32:17.912Z,6.58
2023-02-23T19:37:20.747Z,6.46
2023-02-23T19:42:23.514Z,6.57
2023-02-23T19:47:27.605Z,6.59
2023-02-23T19:52:30.808Z,6.65
2023-02-23T19:57:34.466Z,6.53
2023-02-23T20:02:42.741Z,6.55
2023-02-23T20:07:45.569Z,6.51
2023-02-23T20:12:48.653Z,6.49
2023-02-23T20:17:52.882Z,6.46
2023-02-23T20:22:55.996Z,6.46
2023-02-23T20:27:59.360Z,6.46
2023-02-23T20:33:05.726Z,6.48
2023-02-23T20:38:08.563Z,6.49
2023-02-23T20:43:11.282Z,6.45
2023-02-23T20:48:15.470Z,6.37
2023-02-23T20:53:18.383Z,6.34
2023-02-23T20:58:25.546Z,6.35
2023-02-23T21:03:29.798Z,6.32
2023-02-23T21:08:32.595Z,6.23
2023-02-23T21:13:35.581Z,5.88
2023-02-23T21:18:39.675Z,5.75
2023-02-23T21:23:43.316Z,5.72
2023-02-23T21:28:47.136Z,5.70
2023-02-23T21:33:51.322Z,5.43
2023-02-23T21:38:54.044Z,5.63
2023-02-23T21:43:56.773Z,5.49
2023-02-23T21:49:03.237Z,5.18
2023-02-23T21:54:07.089Z,5.04
2023-02-23T21:59:10.643Z,4.98
2023-02-23T22:04:15.843Z,4.95
2023-02-23T22:09:19.030Z,4.98
2023-02-23T22:14:22.346Z,4.95
2023-02-23T22:19:26.483Z,4.78
2023-02-23T22:24:30.604Z,4.87
2023-02-23T22:29:33.488Z,4.72
2023-02-23T22:34:38.969Z,5.03
2023-02-23T22:39:43.196Z,4.89
2023-02-23T22:44:45.941Z,4.81
2023-02-23T22:49:50.167Z,4.77
2023-02-23T22:54:54.956Z,4.88
2023-02-23T23:00:01.378Z,4.78
2023-02-23T23:05:06.697Z,4.73
2023-02-23T23:10:12.014Z,4.87
2023-02-23T23:15:18.920Z,4.63
2023-02-23T23:20:25.573Z,4.64
2023-02-23T23:25:29.555Z,4.65
2023-02-23T23:30:35.242Z,4.57
2023-02-23T23:35:39.409Z,4.61
2023-02-23T23:40:47.036Z,4.56
2023-02-23T23:45:51.756Z,4.67
2023-02-23T23:50:56.520Z,4.64
2023-02-23T23:56:05.153Z,4.73
